sensor_id;sensor_type;location;lat;lon;timestamp;P1;durP1;ratioP1;P2;durP2;ratioP2
16928;SDS011;8581;47.334;11.190;2023-12-20T00:00:03;1.30;;;1.20;;
16928;SDS011;8581;47.334;11.190;2023-12-20T00:02:35;1.30;;;1.20;;
16928;SDS011;8581;47.334;11.190;2023-12-20T00:05:07;1.10;;;1.00;;
16928;SDS011;8581;47.334;11.190;2023-12-20T00:07:39;1.20;;;1.10;;
16928;SDS011;8581;47.334;11.190;2023-12-20T00:10:11;1.10;;;1.00;;
16928;SDS011;8581;47.334;11.190;2023-12-20T00:12:42;1.57;;;1.00;;
16928;SDS011;8581;47.334;11.190;2023-12-20T00:15:14;0.80;;;0.77;;
16928;SDS011;8581;47.334;11.190;2023-12-20T00:17:45;1.40;;;1.30;;
16928;SDS011;8581;47.334;11.190;2023-12-20T00:20:17;1.30;;;1.00;;
16928;SDS011;8581;47.334;11.190;2023-12-20T00:22:49;1.40;;;1.00;;
16928;SDS011;8581;47.334;11.190;2023-12-20T00:25:20;1.20;;;1.10;;
16928;SDS011;8581;47.334;11.190;2023-12-20T00:27:52;1.00;;;0.90;;
16928;SDS011;8581;47.334;11.190;2023-12-20T00:30:26;1.20;;;1.10;;
16928;SDS011;8581;47.334;11.190;2023-12-20T00:32:57;1.07;;;1.03;;
16928;SDS011;8581;47.334;11.190;2023-12-20T00:35:29;1.33;;;1.20;;
16928;SDS011;8581;47.334;11.190;2023-12-20T00:38:01;1.10;;;1.00;;
16928;SDS011;8581;47.334;11.190;2023-12-20T00:40:32;1.63;;;1.10;;
16928;SDS011;8581;47.334;11.190;2023-12-20T00:43:04;1.20;;;1.10;;
16928;SDS011;8581;47.334;11.190;2023-12-20T00:45:36;1.60;;;1.30;;
16928;SDS011;8581;47.334;11.190;2023-12-20T00:48:07;1.17;;;1.07;;
16928;SDS011;8581;47.334;11.190;2023-12-20T00:50:39;1.20;;;1.10;;
16928;SDS011;8581;47.334;11.190;2023-12-20T00:53:10;1.50;;;0.93;;
16928;SDS011;8581;47.334;11.190;2023-12-20T00:55:42;1.53;;;1.43;;
16928;SDS011;8581;47.334;11.190;2023-12-20T00:58:14;1.20;;;0.90;;
16928;SDS011;8581;47.334;11.190;2023-12-20T01:00:45;1.30;;;1.20;;
16928;SDS011;8581;47.334;11.190;2023-12-20T01:03:17;0.87;;;0.80;;
16928;SDS011;8581;47.334;11.190;2023-12-20T01:05:49;1.30;;;1.00;;
16928;SDS011;8581;47.334;11.190;2023-12-20T01:08:20;0.80;;;0.80;;
16928;SDS011;8581;47.334;11.190;2023-12-20T01:10:52;0.73;;;0.73;;
16928;SDS011;8581;47.334;11.190;2023-12-20T01:13:24;1.27;;;1.03;;
16928;SDS011;8581;47.334;11.190;2023-12-20T01:15:55;1.03;;;0.90;;
16928;SDS011;8581;47.334;11.190;2023-12-20T01:18:27;0.70;;;0.70;;
16928;SDS011;8581;47.334;11.190;2023-12-20T01:21:01;0.90;;;0.90;;
16928;SDS011;8581;47.334;11.190;2023-12-20T01:23:32;0.73;;;0.73;;
16928;SDS011;8581;47.334;11.190;2023-12-20T01:26:04;0.70;;;0.70;;
16928;SDS011;8581;47.334;11.190;2023-12-20T01:28:35;0.80;;;0.73;;
16928;SDS011;8581;47.334;11.190;2023-12-20T01:31:08;0.70;;;0.70;;
16928;SDS011;8581;47.334;11.190;2023-12-20T01:33:39;0.70;;;0.70;;
16928;SDS011;8581;47.334;11.190;2023-12-20T01:36:10;0.60;;;0.60;;
16928;SDS011;8581;47.334;11.190;2023-12-20T01:38:42;0.80;;;0.80;;
16928;SDS011;8581;47.334;11.190;2023-12-20T01:41:14;0.80;;;0.80;;
16928;SDS011;8581;47.334;11.190;2023-12-20T01:43:45;1.13;;;1.03;;
16928;SDS011;8581;47.334;11.190;2023-12-20T01:46:17;0.83;;;0.83;;
16928;SDS011;8581;47.334;11.190;2023-12-20T01:48:48;0.60;;;0.60;;
16928;SDS011;8581;47.334;11.190;2023-12-20T01:51:20;0.97;;;0.70;;
16928;SDS011;8581;47.334;11.190;2023-12-20T01:53:52;0.70;;;0.70;;
16928;SDS011;8581;47.334;11.190;2023-12-20T01:56:24;0.97;;;0.87;;
16928;SDS011;8581;47.334;11.190;2023-12-20T01:58:55;0.83;;;0.83;;
16928;SDS011;8581;47.334;11.190;2023-12-20T02:01:27;0.87;;;0.80;;
16928;SDS011;8581;47.334;11.190;2023-12-20T02:03:58;0.80;;;0.80;;
16928;SDS011;8581;47.334;11.190;2023-12-20T02:06:30;1.53;;;1.00;;
16928;SDS011;8581;47.334;11.190;2023-12-20T02:09:02;0.60;;;0.60;;
16928;SDS011;8581;47.334;11.190;2023-12-20T02:11:33;0.60;;;0.60;;
16928;SDS011;8581;47.334;11.190;2023-12-20T02:14:05;0.70;;;0.67;;
16928;SDS011;8581;47.334;11.190;2023-12-20T02:16:37;1.10;;;0.80;;
16928;SDS011;8581;47.334;11.190;2023-12-20T02:19:10;0.67;;;0.67;;
16928;SDS011;8581;47.334;11.190;2023-12-20T02:21:40;0.60;;;0.60;;
16928;SDS011;8581;47.334;11.190;2023-12-20T02:24:12;0.67;;;0.67;;
16928;SDS011;8581;47.334;11.190;2023-12-20T02:26:43;0.80;;;0.80;;
16928;SDS011;8581;47.334;11.190;2023-12-20T02:29:15;0.60;;;0.60;;
16928;SDS011;8581;47.334;11.190;2023-12-20T02:31:47;0.80;;;0.80;;
16928;SDS011;8581;47.334;11.190;2023-12-20T02:34:18;0.80;;;0.80;;
16928;SDS011;8581;47.334;11.190;2023-12-20T02:36:50;0.90;;;0.90;;
16928;SDS011;8581;47.334;11.190;2023-12-20T02:39:22;0.80;;;0.80;;
16928;SDS011;8581;47.334;11.190;2023-12-20T02:41:53;0.70;;;0.70;;
16928;SDS011;8581;47.334;11.190;2023-12-20T02:44:25;0.73;;;0.73;;
16928;SDS011;8581;47.334;11.190;2023-12-20T02:46:56;0.73;;;0.73;;
16928;SDS011;8581;47.334;11.190;2023-12-20T02:49:28;1.33;;;1.23;;
16928;SDS011;8581;47.334;11.190;2023-12-20T02:52:00;1.10;;;1.00;;
16928;SDS011;8581;47.334;11.190;2023-12-20T02:54:31;1.00;;;0.90;;
16928;SDS011;8581;47.334;11.190;2023-12-20T02:57:03;1.77;;;0.80;;
16928;SDS011;8581;47.334;11.190;2023-12-20T02:59:35;0.77;;;0.70;;
16928;SDS011;8581;47.334;11.190;2023-12-20T03:02:06;1.00;;;0.80;;
16928;SDS011;8581;47.334;11.190;2023-12-20T03:04:38;0.70;;;0.70;;
16928;SDS011;8581;47.334;11.190;2023-12-20T03:07:10;0.70;;;0.70;;
16928;SDS011;8581;47.334;11.190;2023-12-20T03:09:41;0.70;;;0.70;;
16928;SDS011;8581;47.334;11.190;2023-12-20T03:12:13;0.60;;;0.60;;
16928;SDS011;8581;47.334;11.190;2023-12-20T03:14:45;0.73;;;0.73;;
16928;SDS011;8581;47.334;11.190;2023-12-20T03:17:16;0.80;;;0.80;;
16928;SDS011;8581;47.334;11.190;2023-12-20T03:19:48;0.50;;;0.50;;
16928;SDS011;8581;47.334;11.190;2023-12-20T03:22:20;0.50;;;0.50;;
16928;SDS011;8581;47.334;11.190;2023-12-20T03:24:51;0.60;;;0.60;;
16928;SDS011;8581;47.334;11.190;2023-12-20T03:27:23;0.53;;;0.53;;
16928;SDS011;8581;47.334;11.190;2023-12-20T03:29:54;0.70;;;0.70;;
16928;SDS011;8581;47.334;11.190;2023-12-20T03:32:26;0.60;;;0.60;;
16928;SDS011;8581;47.334;11.190;2023-12-20T03:34:58;0.63;;;0.63;;
16928;SDS011;8581;47.334;11.190;2023-12-20T03:37:29;0.60;;;0.60;;
16928;SDS011;8581;47.334;11.190;2023-12-20T03:40:01;0.70;;;0.70;;
16928;SDS011;8581;47.334;11.190;2023-12-20T03:42:33;0.50;;;0.50;;
16928;SDS011;8581;47.334;11.190;2023-12-20T03:45:04;0.63;;;0.63;;
16928;SDS011;8581;47.334;11.190;2023-12-20T03:47:37;0.63;;;0.63;;
16928;SDS011;8581;47.334;11.190;2023-12-20T03:50:08;0.70;;;0.70;;
16928;SDS011;8581;47.334;11.190;2023-12-20T03:52:40;0.60;;;0.60;;
16928;SDS011;8581;47.334;11.190;2023-12-20T03:55:12;0.70;;;0.70;;
16928;SDS011;8581;47.334;11.190;2023-12-20T03:57:43;0.70;;;0.70;;
16928;SDS011;8581;47.334;11.190;2023-12-20T04:00:15;0.80;;;0.77;;
16928;SDS011;8581;47.334;11.190;2023-12-20T04:02:47;0.70;;;0.70;;
16928;SDS011;8581;47.334;11.190;2023-12-20T04:05:18;0.80;;;0.60;;
16928;SDS011;8581;47.334;11.190;2023-12-20T04:07:50;1.10;;;1.00;;
16928;SDS011;8581;47.334;11.190;2023-12-20T04:10:22;0.90;;;0.80;;
16928;SDS011;8581;47.334;11.190;2023-12-20T04:12:53;0.60;;;0.60;;
16928;SDS011;8581;47.334;11.190;2023-12-20T04:15:25;0.80;;;0.80;;
16928;SDS011;8581;47.334;11.190;2023-12-20T04:17:56;0.70;;;0.70;;
16928;SDS011;8581;47.334;11.190;2023-12-20T04:20:28;1.27;;;1.03;;
16928;SDS011;8581;47.334;11.190;2023-12-20T04:23:00;1.50;;;0.90;;
16928;SDS011;8581;47.334;11.190;2023-12-20T04:25:31;0.87;;;0.80;;
16928;SDS011;8581;47.334;11.190;2023-12-20T04:28:03;0.77;;;0.77;;
16928;SDS011;8581;47.334;11.190;2023-12-20T04:30:35;1.23;;;1.13;;
16928;SDS011;8581;47.334;11.190;2023-12-20T04:33:06;0.93;;;0.90;;
16928;SDS011;8581;47.334;11.190;2023-12-20T04:35:38;0.97;;;0.97;;
16928;SDS011;8581;47.334;11.190;2023-12-20T04:38:10;1.33;;;1.20;;
16928;SDS011;8581;47.334;11.190;2023-12-20T04:40:41;0.80;;;0.80;;
16928;SDS011;8581;47.334;11.190;2023-12-20T04:43:13;1.10;;;1.00;;
16928;SDS011;8581;47.334;11.190;2023-12-20T04:45:44;0.90;;;0.90;;
16928;SDS011;8581;47.334;11.190;2023-12-20T04:48:16;1.10;;;1.00;;
16928;SDS011;8581;47.334;11.190;2023-12-20T04:50:48;0.90;;;0.90;;
16928;SDS011;8581;47.334;11.190;2023-12-20T04:53:19;1.20;;;1.10;;
16928;SDS011;8581;47.334;11.190;2023-12-20T04:55:51;1.83;;;1.70;;
16928;SDS011;8581;47.334;11.190;2023-12-20T04:58:22;2.07;;;1.17;;
16928;SDS011;8581;47.334;11.190;2023-12-20T05:00:54;1.10;;;0.90;;
16928;SDS011;8581;47.334;11.190;2023-12-20T05:03:26;1.10;;;0.90;;
16928;SDS011;8581;47.334;11.190;2023-12-20T05:05:57;1.10;;;1.00;;
16928;SDS011;8581;47.334;11.190;2023-12-20T05:08:29;1.10;;;1.00;;
16928;SDS011;8581;47.334;11.190;2023-12-20T05:11:01;0.90;;;0.90;;
16928;SDS011;8581;47.334;11.190;2023-12-20T05:13:33;1.17;;;1.07;;
16928;SDS011;8581;47.334;11.190;2023-12-20T05:16:05;0.90;;;0.90;;
16928;SDS011;8581;47.334;11.190;2023-12-20T05:18:37;0.57;;;0.57;;
16928;SDS011;8581;47.334;11.190;2023-12-20T05:21:09;0.80;;;0.80;;
16928;SDS011;8581;47.334;11.190;2023-12-20T05:23:40;0.73;;;0.73;;
16928;SDS011;8581;47.334;11.190;2023-12-20T05:26:12;0.80;;;0.80;;
16928;SDS011;8581;47.334;11.190;2023-12-20T05:28:43;0.70;;;0.70;;
16928;SDS011;8581;47.334;11.190;2023-12-20T05:31:15;1.00;;;0.90;;
16928;SDS011;8581;47.334;11.190;2023-12-20T05:33:47;1.30;;;1.20;;
16928;SDS011;8581;47.334;11.190;2023-12-20T05:36:18;1.10;;;1.00;;
16928;SDS011;8581;47.334;11.190;2023-12-20T05:38:50;0.70;;;0.70;;
16928;SDS011;8581;47.334;11.190;2023-12-20T05:41:21;0.80;;;0.80;;
16928;SDS011;8581;47.334;11.190;2023-12-20T05:43:53;0.93;;;0.77;;
16928;SDS011;8581;47.334;11.190;2023-12-20T05:46:25;0.77;;;0.77;;
16928;SDS011;8581;47.334;11.190;2023-12-20T05:48:56;0.83;;;0.83;;
16928;SDS011;8581;47.334;11.190;2023-12-20T05:51:28;0.87;;;0.70;;
16928;SDS011;8581;47.334;11.190;2023-12-20T05:54:00;1.00;;;0.90;;
16928;SDS011;8581;47.334;11.190;2023-12-20T05:56:31;0.87;;;0.87;;
16928;SDS011;8581;47.334;11.190;2023-12-20T05:59:03;1.17;;;1.07;;
16928;SDS011;8581;47.334;11.190;2023-12-20T06:01:34;1.33;;;1.07;;
16928;SDS011;8581;47.334;11.190;2023-12-20T06:04:06;1.13;;;1.03;;
16928;SDS011;8581;47.334;11.190;2023-12-20T06:06:40;0.83;;;0.83;;
16928;SDS011;8581;47.334;11.190;2023-12-20T06:09:11;0.90;;;0.90;;
16928;SDS011;8581;47.334;11.190;2023-12-20T06:11:43;0.90;;;0.90;;
16928;SDS011;8581;47.334;11.190;2023-12-20T06:14:15;2.57;;;1.07;;
16928;SDS011;8581;47.334;11.190;2023-12-20T06:16:46;1.00;;;0.90;;
16928;SDS011;8581;47.334;11.190;2023-12-20T06:19:18;1.20;;;1.10;;
16928;SDS011;8581;47.334;11.190;2023-12-20T06:21:50;0.80;;;0.80;;
16928;SDS011;8581;47.334;11.190;2023-12-20T06:24:21;0.97;;;0.90;;
16928;SDS011;8581;47.334;11.190;2023-12-20T06:26:53;1.00;;;1.00;;
16928;SDS011;8581;47.334;11.190;2023-12-20T06:29:25;1.17;;;1.07;;
16928;SDS011;8581;47.334;11.190;2023-12-20T06:31:56;2.10;;;1.10;;
16928;SDS011;8581;47.334;11.190;2023-12-20T06:34:28;1.23;;;1.13;;
16928;SDS011;8581;47.334;11.190;2023-12-20T06:36:59;1.50;;;0.90;;
16928;SDS011;8581;47.334;11.190;2023-12-20T06:39:31;1.30;;;1.20;;
16928;SDS011;8581;47.334;11.190;2023-12-20T06:42:03;1.23;;;0.80;;
16928;SDS011;8581;47.334;11.190;2023-12-20T06:44:35;1.10;;;1.00;;
16928;SDS011;8581;47.334;11.190;2023-12-20T06:47:06;1.00;;;0.90;;
16928;SDS011;8581;47.334;11.190;2023-12-20T06:49:38;1.27;;;1.17;;
16928;SDS011;8581;47.334;11.190;2023-12-20T06:52:09;1.27;;;1.17;;
16928;SDS011;8581;47.334;11.190;2023-12-20T06:54:41;1.40;;;1.20;;
16928;SDS011;8581;47.334;11.190;2023-12-20T06:57:13;1.00;;;1.00;;
16928;SDS011;8581;47.334;11.190;2023-12-20T06:59:44;1.27;;;1.17;;
16928;SDS011;8581;47.334;11.190;2023-12-20T07:02:16;0.90;;;0.90;;
16928;SDS011;8581;47.334;11.190;2023-12-20T07:04:48;1.10;;;1.00;;
16928;SDS011;8581;47.334;11.190;2023-12-20T07:07:19;1.60;;;1.50;;
16928;SDS011;8581;47.334;11.190;2023-12-20T07:09:51;3.67;;;2.30;;
16928;SDS011;8581;47.334;11.190;2023-12-20T07:12:22;1.70;;;1.57;;
16928;SDS011;8581;47.334;11.190;2023-12-20T07:14:54;0.87;;;0.87;;
16928;SDS011;8581;47.334;11.190;2023-12-20T07:17:26;1.30;;;0.80;;
16928;SDS011;8581;47.334;11.190;2023-12-20T07:19:57;0.80;;;0.80;;
16928;SDS011;8581;47.334;11.190;2023-12-20T07:22:29;0.70;;;0.70;;
16928;SDS011;8581;47.334;11.190;2023-12-20T07:25:00;0.90;;;0.90;;
16928;SDS011;8581;47.334;11.190;2023-12-20T07:27:32;0.90;;;0.90;;
16928;SDS011;8581;47.334;11.190;2023-12-20T07:30:04;0.60;;;0.60;;
16928;SDS011;8581;47.334;11.190;2023-12-20T07:32:36;0.80;;;0.80;;
16928;SDS011;8581;47.334;11.190;2023-12-20T07:35:08;0.80;;;0.80;;
16928;SDS011;8581;47.334;11.190;2023-12-20T07:37:39;1.20;;;1.10;;
16928;SDS011;8581;47.334;11.190;2023-12-20T07:40:11;0.80;;;0.80;;
16928;SDS011;8581;47.334;11.190;2023-12-20T07:42:43;1.67;;;0.93;;
16928;SDS011;8581;47.334;11.190;2023-12-20T07:45:14;0.80;;;0.80;;
16928;SDS011;8581;47.334;11.190;2023-12-20T07:47:46;0.73;;;0.73;;
16928;SDS011;8581;47.334;11.190;2023-12-20T07:50:18;1.00;;;0.90;;
16928;SDS011;8581;47.334;11.190;2023-12-20T07:52:49;0.77;;;0.77;;
16928;SDS011;8581;47.334;11.190;2023-12-20T07:55:21;0.90;;;0.90;;
16928;SDS011;8581;47.334;11.190;2023-12-20T07:57:52;1.10;;;1.00;;
16928;SDS011;8581;47.334;11.190;2023-12-20T08:00:24;0.80;;;0.80;;
16928;SDS011;8581;47.334;11.190;2023-12-20T08:02:56;0.90;;;0.90;;
16928;SDS011;8581;47.334;11.190;2023-12-20T08:05:29;1.10;;;0.90;;
16928;SDS011;8581;47.334;11.190;2023-12-20T08:08:01;3.00;;;2.50;;
16928;SDS011;8581;47.334;11.190;2023-12-20T08:10:32;1.40;;;1.30;;
16928;SDS011;8581;47.334;11.190;2023-12-20T08:13:04;1.10;;;0.90;;
16928;SDS011;8581;47.334;11.190;2023-12-20T08:15:36;1.03;;;0.90;;
16928;SDS011;8581;47.334;11.190;2023-12-20T08:18:07;1.10;;;1.00;;
16928;SDS011;8581;47.334;11.190;2023-12-20T08:20:39;0.70;;;0.70;;
16928;SDS011;8581;47.334;11.190;2023-12-20T08:23:12;1.87;;;1.47;;
16928;SDS011;8581;47.334;11.190;2023-12-20T08:25:42;0.80;;;0.80;;
16928;SDS011;8581;47.334;11.190;2023-12-20T08:28:14;0.87;;;0.87;;
16928;SDS011;8581;47.334;11.190;2023-12-20T08:30:46;1.00;;;0.90;;
16928;SDS011;8581;47.334;11.190;2023-12-20T08:33:17;1.27;;;0.90;;
16928;SDS011;8581;47.334;11.190;2023-12-20T08:35:49;0.80;;;0.80;;
16928;SDS011;8581;47.334;11.190;2023-12-20T08:38:20;0.77;;;0.77;;
16928;SDS011;8581;47.334;11.190;2023-12-20T08:40:52;1.20;;;1.10;;
16928;SDS011;8581;47.334;11.190;2023-12-20T08:43:24;0.90;;;0.90;;
16928;SDS011;8581;47.334;11.190;2023-12-20T08:45:56;0.80;;;0.80;;
16928;SDS011;8581;47.334;11.190;2023-12-20T08:48:28;1.13;;;0.80;;
16928;SDS011;8581;47.334;11.190;2023-12-20T08:50:59;1.00;;;0.90;;
16928;SDS011;8581;47.334;11.190;2023-12-20T08:53:31;1.10;;;0.90;;
16928;SDS011;8581;47.334;11.190;2023-12-20T08:56:02;1.63;;;0.80;;
16928;SDS011;8581;47.334;11.190;2023-12-20T08:58:35;1.00;;;0.90;;
16928;SDS011;8581;47.334;11.190;2023-12-20T09:01:07;0.60;;;0.60;;
16928;SDS011;8581;47.334;11.190;2023-12-20T09:03:39;0.60;;;0.60;;
16928;SDS011;8581;47.334;11.190;2023-12-20T09:06:10;0.60;;;0.60;;
16928;SDS011;8581;47.334;11.190;2023-12-20T09:08:42;0.80;;;0.80;;
16928;SDS011;8581;47.334;11.190;2023-12-20T09:11:14;0.70;;;0.70;;
16928;SDS011;8581;47.334;11.190;2023-12-20T09:13:45;0.60;;;0.60;;
16928;SDS011;8581;47.334;11.190;2023-12-20T09:16:20;0.60;;;0.60;;
16928;SDS011;8581;47.334;11.190;2023-12-20T09:18:53;0.60;;;0.60;;
16928;SDS011;8581;47.334;11.190;2023-12-20T09:21:25;0.50;;;0.50;;
16928;SDS011;8581;47.334;11.190;2023-12-20T09:23:57;0.60;;;0.60;;
16928;SDS011;8581;47.334;11.190;2023-12-20T09:26:28;0.60;;;0.60;;
16928;SDS011;8581;47.334;11.190;2023-12-20T09:29:00;0.50;;;0.50;;
16928;SDS011;8581;47.334;11.190;2023-12-20T09:31:32;0.50;;;0.50;;
16928;SDS011;8581;47.334;11.190;2023-12-20T09:34:03;0.57;;;0.57;;
16928;SDS011;8581;47.334;11.190;2023-12-20T09:36:35;0.50;;;0.50;;
16928;SDS011;8581;47.334;11.190;2023-12-20T09:39:06;0.83;;;0.80;;
16928;SDS011;8581;47.334;11.190;2023-12-20T09:41:38;0.60;;;0.60;;
16928;SDS011;8581;47.334;11.190;2023-12-20T09:44:16;0.70;;;0.70;;
16928;SDS011;8581;47.334;11.190;2023-12-20T09:46:49;0.83;;;0.73;;
16928;SDS011;8581;47.334;11.190;2023-12-20T09:49:20;0.83;;;0.50;;
16928;SDS011;8581;47.334;11.190;2023-12-20T09:51:52;0.40;;;0.40;;
16928;SDS011;8581;47.334;11.190;2023-12-20T09:54:24;0.40;;;0.40;;
16928;SDS011;8581;47.334;11.190;2023-12-20T09:56:56;0.83;;;0.80;;
16928;SDS011;8581;47.334;11.190;2023-12-20T09:59:28;0.70;;;0.70;;
16928;SDS011;8581;47.334;11.190;2023-12-20T10:01:59;0.50;;;0.50;;
16928;SDS011;8581;47.334;11.190;2023-12-20T10:04:31;0.60;;;0.60;;
16928;SDS011;8581;47.334;11.190;2023-12-20T10:07:02;0.40;;;0.40;;
16928;SDS011;8581;47.334;11.190;2023-12-20T10:09:35;0.40;;;0.40;;
16928;SDS011;8581;47.334;11.190;2023-12-20T10:12:14;0.53;;;0.50;;
16928;SDS011;8581;47.334;11.190;2023-12-20T10:14:47;0.40;;;0.40;;
16928;SDS011;8581;47.334;11.190;2023-12-20T10:17:24;0.50;;;0.50;;
16928;SDS011;8581;47.334;11.190;2023-12-20T10:19:58;0.60;;;0.60;;
16928;SDS011;8581;47.334;11.190;2023-12-20T10:22:35;1.70;;;1.20;;
16928;SDS011;8581;47.334;11.190;2023-12-20T10:25:09;6.03;;;1.37;;
16928;SDS011;8581;47.334;11.190;2023-12-20T10:27:40;1.93;;;0.90;;
16928;SDS011;8581;47.334;11.190;2023-12-20T10:30:14;0.47;;;0.47;;
16928;SDS011;8581;47.334;11.190;2023-12-20T10:32:47;0.40;;;0.40;;
16928;SDS011;8581;47.334;11.190;2023-12-20T10:35:21;0.60;;;0.40;;
16928;SDS011;8581;47.334;11.190;2023-12-20T10:37:55;0.70;;;0.50;;
16928;SDS011;8581;47.334;11.190;2023-12-20T10:40:26;0.40;;;0.40;;
16928;SDS011;8581;47.334;11.190;2023-12-20T10:42:57;1.40;;;0.73;;
16928;SDS011;8581;47.334;11.190;2023-12-20T10:45:30;1.47;;;0.43;;
16928;SDS011;8581;47.334;11.190;2023-12-20T10:48:03;0.43;;;0.40;;
16928;SDS011;8581;47.334;11.190;2023-12-20T10:50:39;0.50;;;0.50;;
16928;SDS011;8581;47.334;11.190;2023-12-20T10:53:13;0.50;;;0.50;;
16928;SDS011;8581;47.334;11.190;2023-12-20T10:55:53;1.90;;;0.60;;
16928;SDS011;8581;47.334;11.190;2023-12-20T10:58:30;0.40;;;0.40;;
16928;SDS011;8581;47.334;11.190;2023-12-20T11:01:02;0.40;;;0.40;;
16928;SDS011;8581;47.334;11.190;2023-12-20T11:03:36;0.30;;;0.30;;
16928;SDS011;8581;47.334;11.190;2023-12-20T11:06:11;0.40;;;0.40;;
16928;SDS011;8581;47.334;11.190;2023-12-20T11:12:22;0.40;;;0.20;;
16928;SDS011;8581;47.334;11.190;2023-12-20T11:14:42;0.40;;;0.40;;
16928;SDS011;8581;47.334;11.190;2023-12-20T11:17:13;0.40;;;0.40;;
16928;SDS011;8581;47.334;11.190;2023-12-20T11:22:39;0.27;;;0.27;;
16928;SDS011;8581;47.334;11.190;2023-12-20T11:25:11;0.57;;;0.40;;
16928;SDS011;8581;47.334;11.190;2023-12-20T11:27:42;0.10;;;0.10;;
16928;SDS011;8581;47.334;11.190;2023-12-20T11:30:17;0.30;;;0.30;;
16928;SDS011;8581;47.334;11.190;2023-12-20T11:32:51;0.20;;;0.20;;
16928;SDS011;8581;47.334;11.190;2023-12-20T11:35:38;0.30;;;0.30;;
16928;SDS011;8581;47.334;11.190;2023-12-20T11:38:12;0.30;;;0.30;;
16928;SDS011;8581;47.334;11.190;2023-12-20T11:40:43;0.20;;;0.20;;
16928;SDS011;8581;47.334;11.190;2023-12-20T11:46:09;1.20;;;0.40;;
16928;SDS011;8581;47.334;11.190;2023-12-20T11:48:49;0.30;;;0.30;;
16928;SDS011;8581;47.334;11.190;2023-12-20T11:51:22;0.70;;;0.70;;
16928;SDS011;8581;47.334;11.190;2023-12-20T11:53:58;1.10;;;0.90;;
16928;SDS011;8581;47.334;11.190;2023-12-20T11:56:30;0.40;;;0.40;;
16928;SDS011;8581;47.334;11.190;2023-12-20T11:59:03;0.30;;;0.30;;
16928;SDS011;8581;47.334;11.190;2023-12-20T12:01:36;0.47;;;0.20;;
16928;SDS011;8581;47.334;11.190;2023-12-20T12:04:08;0.30;;;0.30;;
16928;SDS011;8581;47.334;11.190;2023-12-20T12:06:40;0.20;;;0.20;;
16928;SDS011;8581;47.334;11.190;2023-12-20T12:09:11;0.30;;;0.30;;
16928;SDS011;8581;47.334;11.190;2023-12-20T12:11:43;0.10;;;0.10;;
16928;SDS011;8581;47.334;11.190;2023-12-20T12:14:15;0.97;;;0.20;;
16928;SDS011;8581;47.334;11.190;2023-12-20T12:16:47;0.30;;;0.30;;
16928;SDS011;8581;47.334;11.190;2023-12-20T12:19:22;0.30;;;0.30;;
16928;SDS011;8581;47.334;11.190;2023-12-20T12:24:44;0.30;;;0.30;;
16928;SDS011;8581;47.334;11.190;2023-12-20T12:27:15;0.30;;;0.20;;
16928;SDS011;8581;47.334;11.190;2023-12-20T12:30:04;0.57;;;0.40;;
16928;SDS011;8581;47.334;11.190;2023-12-20T12:32:38;1.07;;;0.40;;
16928;SDS011;8581;47.334;11.190;2023-12-20T12:35:09;0.30;;;0.30;;
16928;SDS011;8581;47.334;11.190;2023-12-20T12:37:41;0.30;;;0.30;;
16928;SDS011;8581;47.334;11.190;2023-12-20T12:40:14;0.50;;;0.40;;
16928;SDS011;8581;47.334;11.190;2023-12-20T12:42:45;1.47;;;0.30;;
16928;SDS011;8581;47.334;11.190;2023-12-20T12:45:17;0.30;;;0.20;;
16928;SDS011;8581;47.334;11.190;2023-12-20T12:47:49;0.53;;;0.40;;
16928;SDS011;8581;47.334;11.190;2023-12-20T12:50:21;0.20;;;0.20;;
16928;SDS011;8581;47.334;11.190;2023-12-20T12:52:54;0.10;;;0.10;;
16928;SDS011;8581;47.334;11.190;2023-12-20T12:55:30;0.20;;;0.20;;
16928;SDS011;8581;47.334;11.190;2023-12-20T12:58:01;0.10;;;0.10;;
16928;SDS011;8581;47.334;11.190;2023-12-20T13:00:34;0.30;;;0.30;;
16928;SDS011;8581;47.334;11.190;2023-12-20T13:03:09;0.30;;;0.30;;
16928;SDS011;8581;47.334;11.190;2023-12-20T13:05:42;0.40;;;0.40;;
16928;SDS011;8581;47.334;11.190;2023-12-20T13:08:15;0.40;;;0.40;;
16928;SDS011;8581;47.334;11.190;2023-12-20T13:10:47;0.30;;;0.30;;
16928;SDS011;8581;47.334;11.190;2023-12-20T13:13:18;0.20;;;0.20;;
16928;SDS011;8581;47.334;11.190;2023-12-20T13:15:50;0.20;;;0.20;;
16928;SDS011;8581;47.334;11.190;2023-12-20T13:18:22;0.20;;;0.20;;
16928;SDS011;8581;47.334;11.190;2023-12-20T13:20:53;0.20;;;0.20;;
16928;SDS011;8581;47.334;11.190;2023-12-20T13:23:25;0.27;;;0.27;;
16928;SDS011;8581;47.334;11.190;2023-12-20T13:25:57;0.20;;;0.20;;
16928;SDS011;8581;47.334;11.190;2023-12-20T13:28:28;0.30;;;0.30;;
16928;SDS011;8581;47.334;11.190;2023-12-20T13:31:00;0.27;;;0.27;;
16928;SDS011;8581;47.334;11.190;2023-12-20T13:33:31;0.27;;;0.23;;
16928;SDS011;8581;47.334;11.190;2023-12-20T13:36:03;0.40;;;0.40;;
16928;SDS011;8581;47.334;11.190;2023-12-20T13:38:35;0.40;;;0.40;;
16928;SDS011;8581;47.334;11.190;2023-12-20T13:41:07;0.30;;;0.30;;
16928;SDS011;8581;47.334;11.190;2023-12-20T13:43:39;0.30;;;0.30;;
16928;SDS011;8581;47.334;11.190;2023-12-20T13:46:10;0.20;;;0.20;;
16928;SDS011;8581;47.334;11.190;2023-12-20T13:48:42;0.10;;;0.10;;
16928;SDS011;8581;47.334;11.190;2023-12-20T13:51:14;0.40;;;0.40;;
16928;SDS011;8581;47.334;11.190;2023-12-20T13:53:45;0.20;;;0.20;;
16928;SDS011;8581;47.334;11.190;2023-12-20T13:56:17;0.50;;;0.50;;
16928;SDS011;8581;47.334;11.190;2023-12-20T13:58:49;0.53;;;0.53;;
16928;SDS011;8581;47.334;11.190;2023-12-20T14:01:20;0.20;;;0.20;;
16928;SDS011;8581;47.334;11.190;2023-12-20T14:03:52;0.30;;;0.30;;
16928;SDS011;8581;47.334;11.190;2023-12-20T14:06:23;0.27;;;0.27;;
16928;SDS011;8581;47.334;11.190;2023-12-20T14:08:55;0.10;;;0.10;;
16928;SDS011;8581;47.334;11.190;2023-12-20T14:11:27;0.20;;;0.20;;
16928;SDS011;8581;47.334;11.190;2023-12-20T14:13:58;1.80;;;0.40;;
16928;SDS011;8581;47.334;11.190;2023-12-20T14:16:30;0.10;;;0.10;;
16928;SDS011;8581;47.334;11.190;2023-12-20T14:19:02;0.20;;;0.20;;
16928;SDS011;8581;47.334;11.190;2023-12-20T14:21:33;0.30;;;0.30;;
16928;SDS011;8581;47.334;11.190;2023-12-20T14:24:05;0.20;;;0.20;;
16928;SDS011;8581;47.334;11.190;2023-12-20T14:26:37;0.20;;;0.20;;
16928;SDS011;8581;47.334;11.190;2023-12-20T14:29:09;0.20;;;0.20;;
16928;SDS011;8581;47.334;11.190;2023-12-20T14:31:40;0.43;;;0.43;;
16928;SDS011;8581;47.334;11.190;2023-12-20T14:34:12;0.20;;;0.20;;
16928;SDS011;8581;47.334;11.190;2023-12-20T14:36:43;0.30;;;0.27;;
16928;SDS011;8581;47.334;11.190;2023-12-20T14:39:15;0.20;;;0.20;;
16928;SDS011;8581;47.334;11.190;2023-12-20T14:41:47;0.60;;;0.53;;
16928;SDS011;8581;47.334;11.190;2023-12-20T14:44:18;0.20;;;0.20;;
16928;SDS011;8581;47.334;11.190;2023-12-20T14:46:50;0.30;;;0.30;;
16928;SDS011;8581;47.334;11.190;2023-12-20T14:49:22;0.43;;;0.40;;
16928;SDS011;8581;47.334;11.190;2023-12-20T14:51:53;1.23;;;0.40;;
16928;SDS011;8581;47.334;11.190;2023-12-20T14:54:25;0.40;;;0.40;;
16928;SDS011;8581;47.334;11.190;2023-12-20T14:56:57;0.73;;;0.50;;
16928;SDS011;8581;47.334;11.190;2023-12-20T14:59:28;0.33;;;0.33;;
16928;SDS011;8581;47.334;11.190;2023-12-20T15:02:00;0.23;;;0.23;;
16928;SDS011;8581;47.334;11.190;2023-12-20T15:04:31;0.57;;;0.40;;
16928;SDS011;8581;47.334;11.190;2023-12-20T15:07:03;0.37;;;0.37;;
16928;SDS011;8581;47.334;11.190;2023-12-20T15:09:35;0.30;;;0.20;;
16928;SDS011;8581;47.334;11.190;2023-12-20T15:12:07;0.40;;;0.40;;
16928;SDS011;8581;47.334;11.190;2023-12-20T15:14:38;0.40;;;0.40;;
16928;SDS011;8581;47.334;11.190;2023-12-20T15:17:10;0.20;;;0.20;;
16928;SDS011;8581;47.334;11.190;2023-12-20T15:19:42;0.40;;;0.40;;
16928;SDS011;8581;47.334;11.190;2023-12-20T15:22:13;0.40;;;0.40;;
16928;SDS011;8581;47.334;11.190;2023-12-20T15:24:45;0.57;;;0.57;;
16928;SDS011;8581;47.334;11.190;2023-12-20T15:27:17;0.50;;;0.50;;